sensor_id;sensor_type;location;lat;lon;timestamp;P1;durP1;ratioP1;P2;durP2;ratioP2
4971;SDS011;2501;51.214;6.768;2022-09-25T00:01:36;24.15;;;13.02;;
4971;SDS011;2501;51.214;6.768;2022-09-25T00:04:04;17.23;;;12.00;;
4971;SDS011;2501;51.214;6.768;2022-09-25T00:06:33;15.30;;;11.23;;
4971;SDS011;2501;51.214;6.768;2022-09-25T00:09:01;21.33;;;12.65;;
4971;SDS011;2501;51.214;6.768;2022-09-25T00:11:32;20.27;;;11.43;;
4971;SDS011;2501;51.214;6.768;2022-09-25T00:14:01;15.43;;;10.75;;
4971;SDS011;2501;51.214;6.768;2022-09-25T00:16:32;16.85;;;10.40;;
4971;SDS011;2501;51.214;6.768;2022-09-25T00:19:00;17.80;;;10.10;;
4971;SDS011;2501;51.214;6.768;2022-09-25T00:21:41;13.90;;;9.30;;
4971;SDS011;2501;51.214;6.768;2022-09-25T00:24:17;19.65;;;9.93;;
4971;SDS011;2501;51.214;6.768;2022-09-25T00:26:46;18.65;;;9.95;;
4971;SDS011;2501;51.214;6.768;2022-09-25T00:29:16;16.38;;;10.30;;
4971;SDS011;2501;51.214;6.768;2022-09-25T00:31:54;18.02;;;10.45;;
4971;SDS011;2501;51.214;6.768;2022-09-25T00:34:23;16.67;;;9.83;;
4971;SDS011;2501;51.214;6.768;2022-09-25T00:36:52;18.47;;;10.00;;
4971;SDS011;2501;51.214;6.768;2022-09-25T00:39:20;15.55;;;9.43;;
4971;SDS011;2501;51.214;6.768;2022-09-25T00:41:50;15.85;;;9.38;;
4971;SDS011;2501;51.214;6.768;2022-09-25T00:47:25;12.23;;;8.75;;
4971;SDS011;2501;51.214;6.768;2022-09-25T00:49:57;20.60;;;8.50;;
4971;SDS011;2501;51.214;6.768;2022-09-25T00:52:29;11.68;;;8.40;;
4971;SDS011;2501;51.214;6.768;2022-09-25T00:54:59;22.13;;;8.57;;
4971;SDS011;2501;51.214;6.768;2022-09-25T00:57:32;14.68;;;8.00;;
4971;SDS011;2501;51.214;6.768;2022-09-25T01:00:05;14.82;;;8.95;;
4971;SDS011;2501;51.214;6.768;2022-09-25T01:02:39;19.13;;;7.60;;
4971;SDS011;2501;51.214;6.768;2022-09-25T01:05:11;16.23;;;6.97;;
4971;SDS011;2501;51.214;6.768;2022-09-25T01:07:42;13.82;;;7.60;;
4971;SDS011;2501;51.214;6.768;2022-09-25T01:10:13;25.27;;;7.60;;
4971;SDS011;2501;51.214;6.768;2022-09-25T01:12:43;11.48;;;6.70;;
4971;SDS011;2501;51.214;6.768;2022-09-25T01:15:14;13.18;;;6.03;;
4971;SDS011;2501;51.214;6.768;2022-09-25T01:17:48;10.98;;;5.78;;
4971;SDS011;2501;51.214;6.768;2022-09-25T01:20:25;11.63;;;5.43;;
4971;SDS011;2501;51.214;6.768;2022-09-25T01:23:11;8.80;;;4.90;;
4971;SDS011;2501;51.214;6.768;2022-09-25T01:25:49;12.32;;;5.70;;
4971;SDS011;2501;51.214;6.768;2022-09-25T01:28:49;6.70;;;5.00;;
4971;SDS011;2501;51.214;6.768;2022-09-25T01:31:26;12.68;;;5.50;;
4971;SDS011;2501;51.214;6.768;2022-09-25T01:34:02;9.68;;;5.80;;
4971;SDS011;2501;51.214;6.768;2022-09-25T01:36:40;14.85;;;5.97;;
4971;SDS011;2501;51.214;6.768;2022-09-25T01:39:17;14.27;;;7.07;;
4971;SDS011;2501;51.214;6.768;2022-09-25T01:41:49;13.50;;;7.50;;
4971;SDS011;2501;51.214;6.768;2022-09-25T01:44:25;14.25;;;7.40;;
4971;SDS011;2501;51.214;6.768;2022-09-25T01:46:58;11.98;;;6.35;;
4971;SDS011;2501;51.214;6.768;2022-09-25T01:49:36;8.38;;;5.10;;
4971;SDS011;2501;51.214;6.768;2022-09-25T01:52:09;16.10;;;5.68;;
4971;SDS011;2501;51.214;6.768;2022-09-25T01:54:42;9.18;;;4.68;;
4971;SDS011;2501;51.214;6.768;2022-09-25T01:57:13;14.02;;;5.50;;
4971;SDS011;2501;51.214;6.768;2022-09-25T01:59:51;12.05;;;5.07;;
4971;SDS011;2501;51.214;6.768;2022-09-25T02:02:24;11.88;;;4.57;;
4971;SDS011;2501;51.214;6.768;2022-09-25T02:04:57;12.20;;;3.78;;
4971;SDS011;2501;51.214;6.768;2022-09-25T02:07:28;11.82;;;4.20;;
4971;SDS011;2501;51.214;6.768;2022-09-25T02:10:04;7.70;;;3.75;;
4971;SDS011;2501;51.214;6.768;2022-09-25T02:12:37;6.80;;;4.00;;
4971;SDS011;2501;51.214;6.768;2022-09-25T02:15:14;8.68;;;4.30;;
4971;SDS011;2501;51.214;6.768;2022-09-25T02:17:47;14.43;;;5.30;;
4971;SDS011;2501;51.214;6.768;2022-09-25T02:20:33;18.58;;;5.10;;
4971;SDS011;2501;51.214;6.768;2022-09-25T02:23:08;11.77;;;5.00;;
4971;SDS011;2501;51.214;6.768;2022-09-25T02:25:41;9.55;;;4.50;;
4971;SDS011;2501;51.214;6.768;2022-09-25T02:28:12;11.50;;;4.87;;
4971;SDS011;2501;51.214;6.768;2022-09-25T02:30:44;9.57;;;4.50;;
4971;SDS011;2501;51.214;6.768;2022-09-25T02:33:14;14.15;;;4.03;;
4971;SDS011;2501;51.214;6.768;2022-09-25T02:35:42;8.98;;;4.30;;
4971;SDS011;2501;51.214;6.768;2022-09-25T02:38:11;13.30;;;4.47;;
4971;SDS011;2501;51.214;6.768;2022-09-25T02:40:40;9.93;;;3.63;;
4971;SDS011;2501;51.214;6.768;2022-09-25T02:43:18;6.78;;;3.70;;
4971;SDS011;2501;51.214;6.768;2022-09-25T02:46:02;6.28;;;3.08;;
4971;SDS011;2501;51.214;6.768;2022-09-25T02:48:38;8.93;;;3.50;;
4971;SDS011;2501;51.214;6.768;2022-09-25T02:51:16;10.20;;;3.10;;
4971;SDS011;2501;51.214;6.768;2022-09-25T02:53:52;13.68;;;3.40;;
4971;SDS011;2501;51.214;6.768;2022-09-25T02:56:29;5.32;;;2.88;;
4971;SDS011;2501;51.214;6.768;2022-09-25T02:59:03;12.85;;;3.63;;
4971;SDS011;2501;51.214;6.768;2022-09-25T03:01:38;9.27;;;2.90;;
4971;SDS011;2501;51.214;6.768;2022-09-25T03:04:10;12.30;;;3.30;;
4971;SDS011;2501;51.214;6.768;2022-09-25T03:06:41;12.77;;;2.95;;
4971;SDS011;2501;51.214;6.768;2022-09-25T03:09:10;9.03;;;2.60;;
4971;SDS011;2501;51.214;6.768;2022-09-25T03:11:39;13.63;;;2.65;;
4971;SDS011;2501;51.214;6.768;2022-09-25T03:14:08;10.05;;;2.80;;
4971;SDS011;2501;51.214;6.768;2022-09-25T03:16:40;7.70;;;2.50;;
4971;SDS011;2501;51.214;6.768;2022-09-25T03:19:13;8.20;;;2.88;;
4971;SDS011;2501;51.214;6.768;2022-09-25T03:21:44;7.95;;;2.78;;
4971;SDS011;2501;51.214;6.768;2022-09-25T03:24:12;7.28;;;2.67;;
4971;SDS011;2501;51.214;6.768;2022-09-25T03:26:41;8.40;;;2.90;;
4971;SDS011;2501;51.214;6.768;2022-09-25T03:29:10;7.50;;;2.75;;
4971;SDS011;2501;51.214;6.768;2022-09-25T03:31:41;5.65;;;2.00;;
4971;SDS011;2501;51.214;6.768;2022-09-25T03:34:11;8.17;;;2.70;;
4971;SDS011;2501;51.214;6.768;2022-09-25T03:36:41;9.38;;;2.78;;
4971;SDS011;2501;51.214;6.768;2022-09-25T03:39:11;5.57;;;2.10;;
4971;SDS011;2501;51.214;6.768;2022-09-25T03:41:42;5.75;;;2.22;;
4971;SDS011;2501;51.214;6.768;2022-09-25T03:44:11;11.70;;;2.60;;
4971;SDS011;2501;51.214;6.768;2022-09-25T03:46:42;11.80;;;3.00;;
4971;SDS011;2501;51.214;6.768;2022-09-25T03:49:11;9.50;;;3.10;;
4971;SDS011;2501;51.214;6.768;2022-09-25T03:51:39;9.55;;;2.58;;
4971;SDS011;2501;51.214;6.768;2022-09-25T03:54:07;8.70;;;2.80;;
4971;SDS011;2501;51.214;6.768;2022-09-25T03:56:36;9.73;;;3.10;;
4971;SDS011;2501;51.214;6.768;2022-09-25T03:59:04;9.85;;;2.67;;
4971;SDS011;2501;51.214;6.768;2022-09-25T04:01:33;6.35;;;2.70;;
4971;SDS011;2501;51.214;6.768;2022-09-25T04:04:04;8.45;;;3.17;;
4971;SDS011;2501;51.214;6.768;2022-09-25T04:06:32;9.02;;;3.10;;
4971;SDS011;2501;51.214;6.768;2022-09-25T04:09:01;5.10;;;2.88;;
4971;SDS011;2501;51.214;6.768;2022-09-25T04:11:29;8.55;;;3.45;;
4971;SDS011;2501;51.214;6.768;2022-09-25T04:13:59;7.15;;;3.10;;
4971;SDS011;2501;51.214;6.768;2022-09-25T04:16:27;12.18;;;3.22;;
4971;SDS011;2501;51.214;6.768;2022-09-25T04:18:56;5.77;;;2.70;;
4971;SDS011;2501;51.214;6.768;2022-09-25T04:21:27;8.05;;;3.03;;
4971;SDS011;2501;51.214;6.768;2022-09-25T04:23:55;5.88;;;2.70;;
4971;SDS011;2501;51.214;6.768;2022-09-25T04:26:36;11.77;;;3.40;;
4971;SDS011;2501;51.214;6.768;2022-09-25T04:29:04;10.95;;;2.80;;
4971;SDS011;2501;51.214;6.768;2022-09-25T04:31:33;6.63;;;3.00;;
4971;SDS011;2501;51.214;6.768;2022-09-25T04:34:01;6.55;;;2.80;;
4971;SDS011;2501;51.214;6.768;2022-09-25T04:36:31;7.05;;;3.30;;
4971;SDS011;2501;51.214;6.768;2022-09-25T04:38:59;10.40;;;3.50;;
4971;SDS011;2501;51.214;6.768;2022-09-25T04:41:27;9.43;;;3.40;;
4971;SDS011;2501;51.214;6.768;2022-09-25T04:43:56;8.55;;;3.90;;
4971;SDS011;2501;51.214;6.768;2022-09-25T04:46:24;9.90;;;3.70;;
4971;SDS011;2501;51.214;6.768;2022-09-25T04:48:53;10.82;;;3.72;;
4971;SDS011;2501;51.214;6.768;2022-09-25T04:51:21;11.43;;;3.45;;
4971;SDS011;2501;51.214;6.768;2022-09-25T04:53:52;9.98;;;3.70;;
4971;SDS011;2501;51.214;6.768;2022-09-25T04:56:20;11.98;;;3.40;;
4971;SDS011;2501;51.214;6.768;2022-09-25T04:58:49;11.27;;;3.20;;
4971;SDS011;2501;51.214;6.768;2022-09-25T05:01:18;10.57;;;3.20;;
4971;SDS011;2501;51.214;6.768;2022-09-25T05:03:48;8.93;;;2.63;;
4971;SDS011;2501;51.214;6.768;2022-09-25T05:06:17;10.10;;;2.73;;
4971;SDS011;2501;51.214;6.768;2022-09-25T05:08:46;7.10;;;2.75;;
4971;SDS011;2501;51.214;6.768;2022-09-25T05:11:19;10.83;;;2.70;;
4971;SDS011;2501;51.214;6.768;2022-09-25T05:13:48;10.18;;;3.00;;
4971;SDS011;2501;51.214;6.768;2022-09-25T05:16:17;10.50;;;2.80;;
4971;SDS011;2501;51.214;6.768;2022-09-25T05:18:46;13.55;;;3.00;;
4971;SDS011;2501;51.214;6.768;2022-09-25T05:21:14;7.03;;;2.80;;
4971;SDS011;2501;51.214;6.768;2022-09-25T05:23:43;8.52;;;2.75;;
4971;SDS011;2501;51.214;6.768;2022-09-25T05:26:11;7.55;;;2.88;;
4971;SDS011;2501;51.214;6.768;2022-09-25T05:28:42;12.05;;;2.72;;
4971;SDS011;2501;51.214;6.768;2022-09-25T05:31:11;9.00;;;2.50;;
4971;SDS011;2501;51.214;6.768;2022-09-25T05:33:40;11.20;;;2.65;;
4971;SDS011;2501;51.214;6.768;2022-09-25T05:36:09;10.73;;;2.75;;
4971;SDS011;2501;51.214;6.768;2022-09-25T05:38:38;10.40;;;2.75;;
4971;SDS011;2501;51.214;6.768;2022-09-25T05:41:08;7.87;;;2.70;;
4971;SDS011;2501;51.214;6.768;2022-09-25T05:43:38;8.05;;;2.97;;
4971;SDS011;2501;51.214;6.768;2022-09-25T05:46:10;9.90;;;2.78;;
4971;SDS011;2501;51.214;6.768;2022-09-25T05:48:38;6.25;;;2.50;;
4971;SDS011;2501;51.214;6.768;2022-09-25T05:51:07;11.93;;;2.50;;
4971;SDS011;2501;51.214;6.768;2022-09-25T05:53:36;10.57;;;2.90;;
4971;SDS011;2501;51.214;6.768;2022-09-25T05:56:05;8.77;;;2.50;;
4971;SDS011;2501;51.214;6.768;2022-09-25T05:58:34;6.78;;;2.20;;
4971;SDS011;2501;51.214;6.768;2022-09-25T06:01:03;8.55;;;2.38;;
4971;SDS011;2501;51.214;6.768;2022-09-25T06:03:35;10.35;;;2.40;;
4971;SDS011;2501;51.214;6.768;2022-09-25T06:06:04;8.85;;;2.38;;
4971;SDS011;2501;51.214;6.768;2022-09-25T06:08:33;11.52;;;2.53;;
4971;SDS011;2501;51.214;6.768;2022-09-25T06:11:03;14.38;;;2.90;;
4971;SDS011;2501;51.214;6.768;2022-09-25T06:13:32;6.82;;;2.38;;
4971;SDS011;2501;51.214;6.768;2022-09-25T06:16:10;4.30;;;2.60;;
4971;SDS011;2501;51.214;6.768;2022-09-25T06:18:46;7.25;;;2.13;;
4971;SDS011;2501;51.214;6.768;2022-09-25T06:21:15;9.25;;;2.17;;
4971;SDS011;2501;51.214;6.768;2022-09-25T06:23:43;10.35;;;2.75;;
4971;SDS011;2501;51.214;6.768;2022-09-25T06:26:12;7.78;;;2.20;;
4971;SDS011;2501;51.214;6.768;2022-09-25T06:28:41;6.57;;;2.17;;
4971;SDS011;2501;51.214;6.768;2022-09-25T06:31:09;14.20;;;2.47;;
4971;SDS011;2501;51.214;6.768;2022-09-25T06:33:37;8.95;;;2.85;;
4971;SDS011;2501;51.214;6.768;2022-09-25T06:36:08;8.83;;;2.63;;
4971;SDS011;2501;51.214;6.768;2022-09-25T06:38:37;5.25;;;1.80;;
4971;SDS011;2501;51.214;6.768;2022-09-25T06:41:05;6.60;;;2.80;;
4971;SDS011;2501;51.214;6.768;2022-09-25T06:43:34;10.45;;;3.00;;
4971;SDS011;2501;51.214;6.768;2022-09-25T06:46:02;8.80;;;2.75;;
4971;SDS011;2501;51.214;6.768;2022-09-25T06:48:30;8.48;;;3.03;;
4971;SDS011;2501;51.214;6.768;2022-09-25T06:50:59;5.90;;;2.67;;
4971;SDS011;2501;51.214;6.768;2022-09-25T06:53:30;11.48;;;2.83;;
4971;SDS011;2501;51.214;6.768;2022-09-25T06:55:59;10.25;;;3.70;;
4971;SDS011;2501;51.214;6.768;2022-09-25T06:58:27;16.35;;;4.93;;
4971;SDS011;2501;51.214;6.768;2022-09-25T07:00:57;12.65;;;4.05;;
4971;SDS011;2501;51.214;6.768;2022-09-25T07:03:25;9.38;;;4.00;;
4971;SDS011;2501;51.214;6.768;2022-09-25T07:06:07;13.35;;;4.20;;
4971;SDS011;2501;51.214;6.768;2022-09-25T07:08:40;11.20;;;4.38;;
4971;SDS011;2501;51.214;6.768;2022-09-25T07:11:10;13.67;;;4.30;;
4971;SDS011;2501;51.214;6.768;2022-09-25T07:13:40;12.10;;;3.90;;
4971;SDS011;2501;51.214;6.768;2022-09-25T07:16:10;10.50;;;4.43;;
4971;SDS011;2501;51.214;6.768;2022-09-25T07:18:39;18.50;;;4.55;;
4971;SDS011;2501;51.214;6.768;2022-09-25T07:21:09;14.35;;;4.93;;
4971;SDS011;2501;51.214;6.768;2022-09-25T07:23:41;12.38;;;3.85;;
4971;SDS011;2501;51.214;6.768;2022-09-25T07:26:11;11.20;;;3.85;;
4971;SDS011;2501;51.214;6.768;2022-09-25T07:28:41;10.35;;;3.88;;
4971;SDS011;2501;51.214;6.768;2022-09-25T07:31:11;13.70;;;4.65;;
4971;SDS011;2501;51.214;6.768;2022-09-25T07:33:41;11.13;;;3.93;;
4971;SDS011;2501;51.214;6.768;2022-09-25T07:36:10;13.13;;;4.47;;
4971;SDS011;2501;51.214;6.768;2022-09-25T07:38:42;11.88;;;4.50;;
4971;SDS011;2501;51.214;6.768;2022-09-25T07:41:11;16.27;;;4.72;;
4971;SDS011;2501;51.214;6.768;2022-09-25T07:43:40;11.55;;;4.20;;
4971;SDS011;2501;51.214;6.768;2022-09-25T07:46:09;15.73;;;4.73;;
4971;SDS011;2501;51.214;6.768;2022-09-25T07:48:38;16.08;;;4.45;;
4971;SDS011;2501;51.214;6.768;2022-09-25T07:51:07;12.97;;;5.00;;
4971;SDS011;2501;51.214;6.768;2022-09-25T07:53:37;13.38;;;4.70;;
4971;SDS011;2501;51.214;6.768;2022-09-25T07:56:09;12.32;;;4.60;;
4971;SDS011;2501;51.214;6.768;2022-09-25T07:58:38;15.00;;;5.50;;
4971;SDS011;2501;51.214;6.768;2022-09-25T08:01:08;15.80;;;5.60;;
4971;SDS011;2501;51.214;6.768;2022-09-25T08:03:38;13.63;;;5.17;;
4971;SDS011;2501;51.214;6.768;2022-09-25T08:06:07;14.52;;;5.15;;
4971;SDS011;2501;51.214;6.768;2022-09-25T08:08:37;15.88;;;5.38;;
4971;SDS011;2501;51.214;6.768;2022-09-25T08:11:10;18.63;;;5.72;;
4971;SDS011;2501;51.214;6.768;2022-09-25T08:13:41;12.23;;;5.00;;
4971;SDS011;2501;51.214;6.768;2022-09-25T08:16:10;9.95;;;4.60;;
4971;SDS011;2501;51.214;6.768;2022-09-25T08:18:41;18.92;;;5.53;;
4971;SDS011;2501;51.214;6.768;2022-09-25T08:21:11;18.10;;;5.10;;
4971;SDS011;2501;51.214;6.768;2022-09-25T08:23:41;17.63;;;4.90;;
4971;SDS011;2501;51.214;6.768;2022-09-25T08:26:12;15.40;;;4.90;;
4971;SDS011;2501;51.214;6.768;2022-09-25T08:28:41;12.63;;;5.35;;
4971;SDS011;2501;51.214;6.768;2022-09-25T08:31:09;10.50;;;4.20;;
4971;SDS011;2501;51.214;6.768;2022-09-25T08:33:38;16.40;;;4.97;;
4971;SDS011;2501;51.214;6.768;2022-09-25T08:36:10;13.13;;;4.50;;
4971;SDS011;2501;51.214;6.768;2022-09-25T08:38:39;13.18;;;3.88;;
4971;SDS011;2501;51.214;6.768;2022-09-25T08:41:09;11.60;;;4.60;;
4971;SDS011;2501;51.214;6.768;2022-09-25T08:43:49;12.63;;;4.15;;
4971;SDS011;2501;51.214;6.768;2022-09-25T08:46:24;16.60;;;3.80;;
4971;SDS011;2501;51.214;6.768;2022-09-25T08:49:16;8.70;;;3.60;;
4971;SDS011;2501;51.214;6.768;2022-09-25T08:51:47;12.67;;;4.10;;
4971;SDS011;2501;51.214;6.768;2022-09-25T08:54:18;10.25;;;3.78;;
4971;SDS011;2501;51.214;6.768;2022-09-25T08:56:52;14.00;;;3.40;;
4971;SDS011;2501;51.214;6.768;2022-09-25T08:59:24;9.98;;;3.00;;
4971;SDS011;2501;51.214;6.768;2022-09-25T09:01:55;13.98;;;3.00;;
4971;SDS011;2501;51.214;6.768;2022-09-25T09:04:27;10.40;;;2.47;;
4971;SDS011;2501;51.214;6.768;2022-09-25T09:06:59;12.13;;;2.80;;
4971;SDS011;2501;51.214;6.768;2022-09-25T09:09:33;9.10;;;2.90;;
4971;SDS011;2501;51.214;6.768;2022-09-25T09:12:09;11.32;;;3.20;;
4971;SDS011;2501;51.214;6.768;2022-09-25T09:14:42;10.40;;;2.90;;
4971;SDS011;2501;51.214;6.768;2022-09-25T09:17:15;6.95;;;2.40;;
4971;SDS011;2501;51.214;6.768;2022-09-25T09:19:47;8.38;;;1.80;;
4971;SDS011;2501;51.214;6.768;2022-09-25T09:22:18;5.00;;;1.30;;
4971;SDS011;2501;51.214;6.768;2022-09-25T09:24:53;8.15;;;1.48;;
4971;SDS011;2501;51.214;6.768;2022-09-25T09:27:39;7.68;;;2.03;;
4971;SDS011;2501;51.214;6.768;2022-09-25T09:30:20;9.15;;;1.90;;
4971;SDS011;2501;51.214;6.768;2022-09-25T09:33:03;5.10;;;2.20;;
4971;SDS011;2501;51.214;6.768;2022-09-25T09:35:45;6.25;;;1.60;;
4971;SDS011;2501;51.214;6.768;2022-09-25T09:38:22;3.60;;;1.70;;
4971;SDS011;2501;51.214;6.768;2022-09-25T09:41:02;6.45;;;1.60;;
4971;SDS011;2501;51.214;6.768;2022-09-25T09:43:50;4.30;;;1.40;;
4971;SDS011;2501;51.214;6.768;2022-09-25T09:46:31;2.10;;;1.00;;
4971;SDS011;2501;51.214;6.768;2022-09-25T09:49:08;6.78;;;1.90;;
4971;SDS011;2501;51.214;6.768;2022-09-25T09:51:43;3.97;;;1.50;;
4971;SDS011;2501;51.214;6.768;2022-09-25T09:54:19;5.40;;;1.20;;
4971;SDS011;2501;51.214;6.768;2022-09-25T09:56:53;8.87;;;2.43;;
4971;SDS011;2501;51.214;6.768;2022-09-25T09:59:27;3.08;;;1.80;;
4971;SDS011;2501;51.214;6.768;2022-09-25T10:01:59;6.07;;;1.75;;
4971;SDS011;2501;51.214;6.768;2022-09-25T10:04:31;6.68;;;1.80;;
4971;SDS011;2501;51.214;6.768;2022-09-25T10:07:05;7.03;;;1.30;;
4971;SDS011;2501;51.214;6.768;2022-09-25T10:09:36;4.15;;;1.40;;
4971;SDS011;2501;51.214;6.768;2022-09-25T10:12:06;3.30;;;1.20;;
4971;SDS011;2501;51.214;6.768;2022-09-25T10:14:44;6.57;;;1.60;;
4971;SDS011;2501;51.214;6.768;2022-09-25T10:17:14;3.30;;;1.27;;
4971;SDS011;2501;51.214;6.768;2022-09-25T10:19:46;4.45;;;1.20;;
4971;SDS011;2501;51.214;6.768;2022-09-25T10:22:19;5.78;;;1.63;;
4971;SDS011;2501;51.214;6.768;2022-09-25T10:24:53;2.40;;;1.10;;
4971;SDS011;2501;51.214;6.768;2022-09-25T10:27:27;3.90;;;1.30;;
4971;SDS011;2501;51.214;6.768;2022-09-25T10:30:15;5.73;;;1.33;;
4971;SDS011;2501;51.214;6.768;2022-09-25T10:32:58;8.38;;;2.78;;
4971;SDS011;2501;51.214;6.768;2022-09-25T10:35:42;8.90;;;3.00;;
4971;SDS011;2501;51.214;6.768;2022-09-25T10:38:17;9.63;;;2.90;;
4971;SDS011;2501;51.214;6.768;2022-09-25T10:40:56;9.20;;;2.60;;
4971;SDS011;2501;51.214;6.768;2022-09-25T10:43:28;5.72;;;2.45;;
4971;SDS011;2501;51.214;6.768;2022-09-25T10:46:10;7.13;;;2.40;;
4971;SDS011;2501;51.214;6.768;2022-09-25T10:49:09;7.93;;;3.00;;
4971;SDS011;2501;51.214;6.768;2022-09-25T10:52:00;7.43;;;3.00;;
4971;SDS011;2501;51.214;6.768;2022-09-25T10:54:30;10.30;;;3.20;;
4971;SDS011;2501;51.214;6.768;2022-09-25T10:56:58;8.60;;;3.45;;
4971;SDS011;2501;51.214;6.768;2022-09-25T10:59:27;9.15;;;3.20;;
4971;SDS011;2501;51.214;6.768;2022-09-25T11:01:59;6.97;;;3.75;;
4971;SDS011;2501;51.214;6.768;2022-09-25T11:04:28;6.38;;;4.05;;
4971;SDS011;2501;51.214;6.768;2022-09-25T11:07:00;14.30;;;4.60;;
4971;SDS011;2501;51.214;6.768;2022-09-25T11:09:31;7.67;;;3.47;;
4971;SDS011;2501;51.214;6.768;2022-09-25T11:12:06;3.60;;;3.10;;
4971;SDS011;2501;51.214;6.768;2022-09-25T11:14:41;4.95;;;3.20;;
4971;SDS011;2501;51.214;6.768;2022-09-25T11:17:30;6.57;;;3.10;;
4971;SDS011;2501;51.214;6.768;2022-09-25T11:23:01;9.27;;;3.23;;
4971;SDS011;2501;51.214;6.768;2022-09-25T11:25:47;6.03;;;2.90;;
4971;SDS011;2501;51.214;6.768;2022-09-25T11:28:23;5.97;;;2.20;;
4971;SDS011;2501;51.214;6.768;2022-09-25T11:30:59;4.83;;;2.20;;
4971;SDS011;2501;51.214;6.768;2022-09-25T11:33:39;8.50;;;2.50;;
4971;SDS011;2501;51.214;6.768;2022-09-25T11:36:14;5.40;;;2.10;;
4971;SDS011;2501;51.214;6.768;2022-09-25T11:38:46;3.42;;;2.05;;
4971;SDS011;2501;51.214;6.768;2022-09-25T11:41:28;5.78;;;2.05;;
4971;SDS011;2501;51.214;6.768;2022-09-25T11:44:15;2.20;;;1.70;;
4971;SDS011;2501;51.214;6.768;2022-09-25T11:46:52;6.17;;;1.70;;
4971;SDS011;2501;51.214;6.768;2022-09-25T11:49:32;4.17;;;1.60;;
4971;SDS011;2501;51.214;6.768;2022-09-25T12:01:01;4.53;;;2.35;;
4971;SDS011;2501;51.214;6.768;2022-09-25T12:03:41;5.40;;;2.17;;
4971;SDS011;2501;51.214;6.768;2022-09-25T12:09:22;5.05;;;2.40;;
4971;SDS011;2501;51.214;6.768;2022-09-25T12:12:06;2.97;;;2.20;;
4971;SDS011;2501;51.214;6.768;2022-09-25T12:14:47;2.70;;;2.03;;
4971;SDS011;2501;51.214;6.768;2022-09-25T12:17:25;4.70;;;2.10;;
4971;SDS011;2501;51.214;6.768;2022-09-25T12:20:02;7.95;;;2.35;;
4971;SDS011;2501;51.214;6.768;2022-09-25T12:22:45;6.68;;;2.03;;
4971;SDS011;2501;51.214;6.768;2022-09-25T12:25:27;3.47;;;1.73;;
4971;SDS011;2501;51.214;6.768;2022-09-25T12:28:16;2.10;;;1.60;;
4971;SDS011;2501;51.214;6.768;2022-09-25T12:30:56;7.03;;;1.83;;
4971;SDS011;2501;51.214;6.768;2022-09-25T12:33:34;1.70;;;1.60;;
4971;SDS011;2501;51.214;6.768;2022-09-25T12:36:11;5.28;;;1.35;;
4971;SDS011;2501;51.214;6.768;2022-09-25T12:38:48;3.33;;;1.08;;
4971;SDS011;2501;51.214;6.768;2022-09-25T12:41:22;15.30;;;1.70;;
4971;SDS011;2501;51.214;6.768;2022-09-25T12:43:59;2.35;;;1.20;;
4971;SDS011;2501;51.214;6.768;2022-09-25T12:46:32;4.30;;;1.20;;
4971;SDS011;2501;51.214;6.768;2022-09-25T12:49:10;3.80;;;1.10;;
4971;SDS011;2501;51.214;6.768;2022-09-25T12:51:42;4.40;;;1.58;;
4971;SDS011;2501;51.214;6.768;2022-09-25T12:54:20;8.38;;;1.80;;
4971;SDS011;2501;51.214;6.768;2022-09-25T12:56:54;7.57;;;1.95;;
4971;SDS011;2501;51.214;6.768;2022-09-25T12:59:27;3.47;;;1.77;;
4971;SDS011;2501;51.214;6.768;2022-09-25T13:02:03;5.60;;;1.50;;
4971;SDS011;2501;51.214;6.768;2022-09-25T13:04:47;2.08;;;1.50;;
4971;SDS011;2501;51.214;6.768;2022-09-25T13:07:23;2.70;;;1.30;;
4971;SDS011;2501;51.214;6.768;2022-09-25T13:09:59;3.13;;;1.20;;
4971;SDS011;2501;51.214;6.768;2022-09-25T13:12:32;3.30;;;1.50;;
4971;SDS011;2501;51.214;6.768;2022-09-25T13:15:03;4.78;;;1.10;;
4971;SDS011;2501;51.214;6.768;2022-09-25T13:17:34;1.67;;;1.10;;
4971;SDS011;2501;51.214;6.768;2022-09-25T13:23:02;4.40;;;1.40;;
4971;SDS011;2501;51.214;6.768;2022-09-25T13:25:41;0.90;;;0.80;;
4971;SDS011;2501;51.214;6.768;2022-09-25T13:28:17;1.90;;;0.82;;
4971;SDS011;2501;51.214;6.768;2022-09-25T13:30:58;1.95;;;1.00;;
4971;SDS011;2501;51.214;6.768;2022-09-25T13:33:36;5.95;;;1.27;;
4971;SDS011;2501;51.214;6.768;2022-09-25T13:36:17;1.70;;;1.00;;
4971;SDS011;2501;51.214;6.768;2022-09-25T13:38:57;2.85;;;1.10;;
4971;SDS011;2501;51.214;6.768;2022-09-25T13:41:49;1.60;;;0.90;;
4971;SDS011;2501;51.214;6.768;2022-09-25T13:50:28;3.45;;;0.80;;
4971;SDS011;2501;51.214;6.768;2022-09-25T13:53:09;3.95;;;0.93;;
4971;SDS011;2501;51.214;6.768;2022-09-25T14:01:46;3.28;;;0.90;;
4971;SDS011;2501;51.214;6.768;2022-09-25T14:04:28;2.85;;;1.10;;
4971;SDS011;2501;51.214;6.768;2022-09-25T14:07:15;1.50;;;0.80;;
4971;SDS011;2501;51.214;6.768;2022-09-25T14:09:47;1.33;;;1.00;;
4971;SDS011;2501;51.214;6.768;2022-09-25T14:12:21;3.30;;;1.30;;
4971;SDS011;2501;51.214;6.768;2022-09-25T14:14:57;4.70;;;1.10;;
4971;SDS011;2501;51.214;6.768;2022-09-25T14:17:30;3.33;;;1.35;;
4971;SDS011;2501;51.214;6.768;2022-09-25T14:20:00;1.70;;;1.00;;
4971;SDS011;2501;51.214;6.768;2022-09-25T14:22:35;1.37;;;0.83;;
4971;SDS011;2501;51.214;6.768;2022-09-25T14:25:25;3.10;;;0.90;;
4971;SDS011;2501;51.214;6.768;2022-09-25T14:27:57;2.10;;;0.90;;
4971;SDS011;2501;51.214;6.768;2022-09-25T14:30:28;5.60;;;1.00;;
4971;SDS011;2501;51.214;6.768;2022-09-25T14:33:03;3.30;;;1.27;;
4971;SDS011;2501;51.214;6.768;2022-09-25T14:35:44;2.30;;;0.80;;
4971;SDS011;2501;51.214;6.768;2022-09-25T14:38:27;1.00;;;0.90;;
4971;SDS011;2501;51.214;6.768;2022-09-25T14:41:12;3.40;;;0.80;;
4971;SDS011;2501;51.214;6.768;2022-09-25T14:44:05;2.20;;;0.90;;
4971;SDS011;2501;51.214;6.768;2022-09-25T14:46:52;2.40;;;1.20;;
4971;SDS011;2501;51.214;6.768;2022-09-25T14:49:23;2.10;;;0.73;;
4971;SDS011;2501;51.214;6.768;2022-09-25T14:51:55;1.40;;;0.80;;
4971;SDS011;2501;51.214;6.768;2022-09-25T14:54:28;3.00;;;1.13;;
4971;SDS011;2501;51.214;6.768;2022-09-25T14:57:00;1.40;;;0.90;;
4971;SDS011;2501;51.214;6.768;2022-09-25T14:59:32;2.35;;;0.90;;
4971;SDS011;2501;51.214;6.768;2022-09-25T15:02:12;0.90;;;0.80;;
4971;SDS011;2501;51.214;6.768;2022-09-25T15:04:44;1.10;;;0.70;;
4971;SDS011;2501;51.214;6.768;2022-09-25T15:07:13;1.90;;;1.08;;
4971;SDS011;2501;51.214;6.768;2022-09-25T15:09:45;2.33;;;0.97;;
4971;SDS011;2501;51.214;6.768;2022-09-25T15:12:16;4.10;;;0.95;;
4971;SDS011;2501;51.214;6.768;2022-09-25T15:14:59;2.60;;;0.70;;
4971;SDS011;2501;51.214;6.768;2022-09-25T15:17:33;2.33;;;0.80;;
4971;SDS011;2501;51.214;6.768;2022-09-25T15:20:16;2.10;;;0.90;;
4971;SDS011;2501;51.214;6.768;2022-09-25T15:22:48;2.50;;;0.98;;
4971;SDS011;2501;51.214;6.768;2022-09-25T15:25:22;3.97;;;0.90;;
4971;SDS011;2501;51.214;6.768;2022-09-25T15:27:53;7.50;;;1.10;;
4971;SDS011;2501;51.214;6.768;2022-09-25T15:30:22;1.50;;;0.88;;
4971;SDS011;2501;51.214;6.768;2022-09-25T15:32:58;1.67;;;0.87;;
4971;SDS011;2501;51.214;6.768;2022-09-25T15:35:27;2.50;;;1.00;;
4971;SDS011;2501;51.214;6.768;2022-09-25T15:38:01;1.10;;;0.70;;
4971;SDS011;2501;51.214;6.768;2022-09-25T15:40:32;2.70;;;0.70;;
4971;SDS011;2501;51.214;6.768;2022-09-25T15:43:01;2.35;;;1.05;;
4971;SDS011;2501;51.214;6.768;2022-09-25T15:45:34;2.40;;;1.20;;
4971;SDS011;2501;51.214;6.768;2022-09-25T15:48:16;1.10;;;0.90;;
4971;SDS011;2501;51.214;6.768;2022-09-25T15:50:48;1.10;;;0.80;;
4971;SDS011;2501;51.214;6.768;2022-09-25T15:53:19;1.10;;;0.90;;
4971;SDS011;2501;51.214;6.768;2022-09-25T15:56:00;1.05;;;0.70;;
4971;SDS011;2501;51.214;6.768;2022-09-25T15:58:33;1.00;;;0.70;;
4971;SDS011;2501;51.214;6.768;2022-09-25T16:01:11;4.00;;;1.10;;
4971;SDS011;2501;51.214;6.768;2022-09-25T16:03:58;2.03;;;0.90;;
4971;SDS011;2501;51.214;6.768;2022-09-25T16:06:40;1.95;;;1.00;;
4971;SDS011;2501;51.214;6.768;2022-09-25T16:09:21;2.20;;;0.90;;
4971;SDS011;2501;51.214;6.768;2022-09-25T16:12:09;2.17;;;0.90;;
4971;SDS011;2501;51.214;6.768;2022-09-25T16:14:38;3.05;;;1.10;;
4971;SDS011;2501;51.214;6.768;2022-09-25T16:17:13;3.00;;;1.20;;
4971;SDS011;2501;51.214;6.768;2022-09-25T16:22:56;2.85;;;0.90;;
4971;SDS011;2501;51.214;6.768;2022-09-25T16:25:28;3.45;;;1.33;;